Nepal

Resources for Nepal vACC

Active Sector File
VNSM-Nepal-Install_20191216082106-191301-0001.zip | Release Date 12/16/2019 | Downloads 5 | File Size 6.85 MB

Archive Sector File
VNSM-Nepal-Install_20191107225215-191201-0001.zip | Release Date 11/7/2019 | Downloads 4 | File Size 6.84 MB
VNSM-Nepal-Install_20191004024207-191001-0001.zip | Release Date 10/4/2019 | Downloads 17 | File Size 6.79 MB
VNSM-Nepal-Install_20190826110734-190901-0001.zip | Release Date 8/26/2019 | Downloads 15 | File Size 6.81 MB

VATSIM Metar for Nepal
VNKT 221150Z 30006KT 9999 FEW025 14/02 Q1018 NOSIG